SVA1049 OERK-OEJN
Flight info
| Callsign | SVA1049 |
|---|---|
| Flight time | 1h 28m |
| Altitude | 40000 |
| Route | DURMA G782 VEMEM |
| Aircraft | B77W/H-SDE1E2E3FGHIJ2J3J4J5M1RWXY/LB1D1 |
Departure
| Time | 2026-05-06 00:12 |
|---|---|
| Airport | King Khalid International Airport (OERK) |
Arrival
| Time | 2026-05-06 01:40 |
|---|---|
| Airport | King Abdulaziz International Airport (OEJN) |
| Time | Latitude | Longitude | Altitude | Speed | Heading |
|---|---|---|---|---|---|
| 2026-05-05 23:56 | 24.95037 | 46.71288 | 2036 ft | 0 kts | 240° |
| 2026-05-06 00:01 | 24.95047 | 46.71307 | 2046 ft | 4 kts | 240° |
| 2026-05-06 00:02 | 24.95061 | 46.71333 | 2046 ft | 4 kts | 240° |
| 2026-05-06 00:02 | 24.95073 | 46.71354 | 2046 ft | 4 kts | 212° |
| 2026-05-06 00:02 | 24.95095 | 46.71357 | 2046 ft | 4 kts | 153° |
| 2026-05-06 00:02 | 24.95115 | 46.71344 | 2046 ft | 1 kts | 149° |
| 2026-05-06 00:05 | 24.95112 | 46.71346 | 2046 ft | 1 kts | 149° |
| 2026-05-06 00:05 | 24.95101 | 46.71353 | 2044 ft | 4 kts | 149° |
| 2026-05-06 00:05 | 24.95072 | 46.71372 | 2046 ft | 5 kts | 149° |
| 2026-05-06 00:06 | 24.95040 | 46.71393 | 2046 ft | 6 kts | 149° |
| 2026-05-06 00:06 | 24.95005 | 46.71417 | 2046 ft | 6 kts | 148° |
| 2026-05-06 00:06 | 24.94961 | 46.71445 | 2046 ft | 10 kts | 151° |
| 2026-05-06 00:06 | 24.94883 | 46.71491 | 2044 ft | 14 kts | 150° |
| 2026-05-06 00:07 | 24.94800 | 46.71544 | 2044 ft | 14 kts | 150° |
| 2026-05-06 00:07 | 24.94717 | 46.71597 | 2043 ft | 14 kts | 150° |
| 2026-05-06 00:07 | 24.94634 | 46.71650 | 2044 ft | 14 kts | 150° |
| 2026-05-06 00:07 | 24.94550 | 46.71701 | 2040 ft | 14 kts | 151° |
| 2026-05-06 00:08 | 24.94466 | 46.71753 | 2043 ft | 14 kts | 150° |
| 2026-05-06 00:08 | 24.94384 | 46.71807 | 2045 ft | 13 kts | 146° |
| 2026-05-06 00:08 | 24.94395 | 46.71896 | 2042 ft | 13 kts | 60° |
| 2026-05-06 00:08 | 24.94439 | 46.71983 | 2045 ft | 12 kts | 60° |
| 2026-05-06 00:09 | 24.94460 | 46.72020 | 2043 ft | 0 kts | 59° |
| 2026-05-06 00:09 | 24.94460 | 46.72021 | 2043 ft | 1 kts | 59° |
| 2026-05-06 00:09 | 24.94492 | 46.72080 | 2045 ft | 16 kts | 59° |
| 2026-05-06 00:10 | 24.94554 | 46.72177 | 2045 ft | 15 kts | 26° |
| 2026-05-06 00:10 | 24.94641 | 46.72127 | 2046 ft | 15 kts | 327° |
| 2026-05-06 00:10 | 24.94669 | 46.72109 | 2045 ft | 0 kts | 330° |
| 2026-05-06 00:10 | 24.94675 | 46.72105 | 2045 ft | 6 kts | 330° |
| 2026-05-06 00:11 | 24.94842 | 46.71999 | 2044 ft | 57 kts | 329° |
| 2026-05-06 00:11 | 24.95431 | 46.71628 | 2041 ft | 135 kts | 330° |
| 2026-05-06 00:11 | 24.96433 | 46.70994 | 2043 ft | 193 kts | 330° |
| 2026-05-06 00:11 | 24.97697 | 46.70185 | 2338 ft | 213 kts | 331° |
| 2026-05-06 00:12 | 24.98956 | 46.69406 | 3331 ft | 200 kts | 333° |
| 2026-05-06 00:12 | 25.00148 | 46.68645 | 4193 ft | 199 kts | 332° |
| 2026-05-06 00:12 | 25.01426 | 46.67828 | 4481 ft | 231 kts | 330° |
| 2026-05-06 00:12 | 25.02864 | 46.66848 | 4951 ft | 248 kts | 323° |
| 2026-05-06 00:13 | 25.04051 | 46.65391 | 5195 ft | 272 kts | 289° |
| 2026-05-06 00:13 | 25.04213 | 46.63360 | 5888 ft | 268 kts | 253° |
| 2026-05-06 00:13 | 25.03324 | 46.61583 | 6683 ft | 267 kts | 229° |
| 2026-05-06 00:13 | 25.02144 | 46.59976 | 7426 ft | 273 kts | 231° |
| 2026-05-06 00:14 | 25.00978 | 46.58299 | 8332 ft | 276 kts | 232° |
| 2026-05-06 00:14 | 24.99813 | 46.56609 | 9309 ft | 278 kts | 232° |
| 2026-05-06 00:14 | 24.98633 | 46.54898 | 10171 ft | 283 kts | 232° |
| 2026-05-06 00:14 | 24.97407 | 46.53124 | 10693 ft | 304 kts | 232° |
| 2026-05-06 00:15 | 24.96063 | 46.51177 | 10918 ft | 334 kts | 232° |
| 2026-05-06 00:15 | 24.94644 | 46.49121 | 11576 ft | 347 kts | 232° |
| 2026-05-06 00:15 | 24.93168 | 46.46980 | 12568 ft | 353 kts | 233° |
| 2026-05-06 00:15 | 24.91676 | 46.44816 | 13693 ft | 357 kts | 233° |
| 2026-05-06 00:16 | 24.90170 | 46.42631 | 14717 ft | 360 kts | 233° |
| 2026-05-06 00:16 | 24.88651 | 46.40428 | 15781 ft | 362 kts | 233° |
| 2026-05-06 00:16 | 24.87117 | 46.38205 | 16628 ft | 367 kts | 233° |
| 2026-05-06 00:16 | 24.85569 | 46.35962 | 16932 ft | 368 kts | 233° |
| 2026-05-06 00:17 | 24.84017 | 46.33716 | 16915 ft | 368 kts | 232° |
| 2026-05-06 00:17 | 24.82465 | 46.31469 | 16925 ft | 369 kts | 232° |
| 2026-05-06 00:17 | 24.80915 | 46.29225 | 16917 ft | 369 kts | 232° |
| 2026-05-06 00:17 | 24.79361 | 46.26978 | 16925 ft | 369 kts | 232° |
| 2026-05-06 00:18 | 24.77808 | 46.24734 | 16919 ft | 369 kts | 232° |
| 2026-05-06 00:18 | 24.76253 | 46.22488 | 16917 ft | 369 kts | 232° |
| 2026-05-06 00:18 | 24.74692 | 46.20238 | 16975 ft | 371 kts | 232° |
| 2026-05-06 00:18 | 24.73122 | 46.17976 | 17944 ft | 372 kts | 232° |
| 2026-05-06 00:19 | 24.71552 | 46.15714 | 19006 ft | 373 kts | 232° |
| 2026-05-06 00:19 | 24.69965 | 46.13429 | 19848 ft | 379 kts | 232° |
| 2026-05-06 00:19 | 24.68349 | 46.11103 | 20645 ft | 387 kts | 232° |
| 2026-05-06 00:19 | 24.66704 | 46.08735 | 21472 ft | 392 kts | 232° |
| 2026-05-06 00:20 | 24.65038 | 46.06338 | 22289 ft | 398 kts | 232° |
| 2026-05-06 00:20 | 24.63344 | 46.03902 | 23063 ft | 404 kts | 232° |
| 2026-05-06 00:20 | 24.61626 | 46.01432 | 23775 ft | 410 kts | 232° |
| 2026-05-06 00:20 | 24.59889 | 45.98937 | 24519 ft | 412 kts | 232° |
| 2026-05-06 00:21 | 24.58148 | 45.96436 | 25348 ft | 411 kts | 233° |
| 2026-05-06 00:21 | 24.56411 | 45.93942 | 26193 ft | 411 kts | 233° |
| 2026-05-06 00:21 | 24.54668 | 45.91442 | 26919 ft | 414 kts | 233° |
| 2026-05-06 00:21 | 24.52910 | 45.88922 | 27586 ft | 417 kts | 233° |
| 2026-05-06 00:22 | 24.51176 | 45.86345 | 28255 ft | 420 kts | 235° |
| 2026-05-06 00:22 | 24.49498 | 45.83708 | 28935 ft | 423 kts | 236° |
| 2026-05-06 00:22 | 24.47839 | 45.81032 | 29591 ft | 425 kts | 237° |
| 2026-05-06 00:22 | 24.46188 | 45.78333 | 30182 ft | 428 kts | 237° |
| 2026-05-06 00:23 | 24.44600 | 45.75615 | 30670 ft | 430 kts | 240° |
| 2026-05-06 00:23 | 24.43176 | 45.72675 | 31124 ft | 432 kts | 244° |
| 2026-05-06 00:23 | 24.41878 | 45.69689 | 31564 ft | 435 kts | 245° |
| 2026-05-06 00:23 | 24.40608 | 45.66672 | 32007 ft | 436 kts | 245° |
| 2026-05-06 00:24 | 24.39349 | 45.63700 | 32541 ft | 434 kts | 245° |
| 2026-05-06 00:24 | 24.38065 | 45.60721 | 33194 ft | 430 kts | 244° |
| 2026-05-06 00:24 | 24.36774 | 45.57774 | 33844 ft | 427 kts | 244° |
| 2026-05-06 00:24 | 24.35481 | 45.54854 | 34354 ft | 425 kts | 244° |
| 2026-05-06 00:25 | 24.34185 | 45.51945 | 34785 ft | 425 kts | 244° |
| 2026-05-06 00:25 | 24.32884 | 45.49036 | 35193 ft | 425 kts | 243° |
| 2026-05-06 00:25 | 24.31585 | 45.46135 | 35623 ft | 424 kts | 243° |
| 2026-05-06 00:25 | 24.30290 | 45.43242 | 36067 ft | 422 kts | 243° |
| 2026-05-06 00:26 | 24.28997 | 45.40355 | 36487 ft | 421 kts | 243° |
| 2026-05-06 00:26 | 24.27706 | 45.37475 | 36904 ft | 421 kts | 243° |
| 2026-05-06 00:26 | 24.26418 | 45.34601 | 37345 ft | 419 kts | 243° |
| 2026-05-06 00:26 | 24.25136 | 45.31741 | 37751 ft | 418 kts | 243° |
| 2026-05-06 00:27 | 24.23850 | 45.28876 | 37926 ft | 422 kts | 243° |
| 2026-05-06 00:27 | 24.21250 | 45.23085 | 37918 ft | 423 kts | 243° |
| 2026-05-06 00:28 | 24.18673 | 45.17352 | 37928 ft | 418 kts | 243° |
| 2026-05-06 00:28 | 24.16101 | 45.11640 | 37936 ft | 418 kts | 243° |
| 2026-05-06 00:29 | 24.13528 | 45.05922 | 37940 ft | 419 kts | 243° |
| 2026-05-06 00:29 | 24.10953 | 45.00199 | 37938 ft | 420 kts | 243° |
| 2026-05-06 00:30 | 24.08372 | 44.94470 | 37945 ft | 420 kts | 243° |
| 2026-05-06 00:30 | 24.05789 | 44.88741 | 37944 ft | 419 kts | 243° |
| 2026-05-06 00:31 | 24.03207 | 44.83023 | 37949 ft | 419 kts | 243° |
| 2026-05-06 00:31 | 24.00625 | 44.77312 | 37947 ft | 419 kts | 243° |
| 2026-05-06 00:32 | 23.98044 | 44.71608 | 37939 ft | 419 kts | 243° |
| 2026-05-06 00:32 | 23.95458 | 44.65901 | 37956 ft | 419 kts | 243° |
| 2026-05-06 00:33 | 23.93015 | 44.60112 | 37967 ft | 420 kts | 248° |
| 2026-05-06 00:33 | 23.91355 | 44.53975 | 37961 ft | 423 kts | 254° |
| 2026-05-06 00:34 | 23.90043 | 44.47714 | 37956 ft | 423 kts | 254° |
| 2026-05-06 00:34 | 23.88724 | 44.41455 | 37969 ft | 422 kts | 254° |
| 2026-05-06 00:35 | 23.87392 | 44.35206 | 37957 ft | 422 kts | 254° |
| 2026-05-06 00:35 | 23.86062 | 44.29003 | 37957 ft | 422 kts | 254° |
| 2026-05-06 00:36 | 23.84721 | 44.22762 | 37958 ft | 422 kts | 254° |
| 2026-05-06 00:36 | 23.83379 | 44.16530 | 37955 ft | 421 kts | 254° |
| 2026-05-06 00:37 | 23.82036 | 44.10304 | 37949 ft | 421 kts | 253° |
| 2026-05-06 00:37 | 23.80694 | 44.04093 | 37955 ft | 420 kts | 253° |
| 2026-05-06 00:38 | 23.79351 | 43.97891 | 37944 ft | 420 kts | 253° |
| 2026-05-06 00:38 | 23.78007 | 43.91693 | 37957 ft | 419 kts | 253° |
| 2026-05-06 00:39 | 23.76655 | 43.85495 | 37957 ft | 420 kts | 253° |
| 2026-05-06 00:39 | 23.75516 | 43.80307 | 37968 ft | 420 kts | 253° |
| 2026-05-06 00:40 | 23.74153 | 43.74114 | 37967 ft | 420 kts | 253° |
| 2026-05-06 00:40 | 23.72800 | 43.67965 | 37961 ft | 419 kts | 253° |
| 2026-05-06 00:41 | 23.71436 | 43.61783 | 37984 ft | 419 kts | 253° |
| 2026-05-06 00:41 | 23.70071 | 43.55605 | 37971 ft | 419 kts | 253° |
| 2026-05-06 00:42 | 23.68702 | 43.49425 | 37977 ft | 419 kts | 253° |
| 2026-05-06 00:42 | 23.67330 | 43.43243 | 37976 ft | 420 kts | 253° |
| 2026-05-06 00:43 | 23.65955 | 43.37057 | 37990 ft | 419 kts | 253° |
| 2026-05-06 00:43 | 23.64578 | 43.30875 | 37986 ft | 419 kts | 253° |
| 2026-05-06 00:44 | 23.63199 | 43.24701 | 37990 ft | 419 kts | 253° |
| 2026-05-06 00:44 | 23.61819 | 43.18530 | 37984 ft | 419 kts | 253° |
| 2026-05-06 00:45 | 23.60438 | 43.12364 | 37995 ft | 419 kts | 253° |
| 2026-05-06 00:45 | 23.59054 | 43.06200 | 37996 ft | 419 kts | 253° |
| 2026-05-06 00:46 | 23.57667 | 43.00032 | 38003 ft | 419 kts | 253° |
| 2026-05-06 00:46 | 23.56276 | 42.93861 | 37999 ft | 420 kts | 253° |
| 2026-05-06 00:47 | 23.54880 | 42.87683 | 38000 ft | 420 kts | 253° |
| 2026-05-06 00:47 | 23.53483 | 42.81504 | 38001 ft | 420 kts | 253° |
| 2026-05-06 00:48 | 23.52081 | 42.75322 | 37998 ft | 420 kts | 253° |
| 2026-05-06 00:48 | 23.50679 | 42.69142 | 38003 ft | 420 kts | 253° |
| 2026-05-06 00:49 | 23.49277 | 42.62964 | 37996 ft | 420 kts | 253° |
| 2026-05-06 00:49 | 23.47873 | 42.56789 | 38008 ft | 420 kts | 253° |
| 2026-05-06 00:50 | 23.46469 | 42.50625 | 38002 ft | 419 kts | 253° |
| 2026-05-06 00:50 | 23.45075 | 42.44517 | 38002 ft | 418 kts | 253° |
| 2026-05-06 00:51 | 23.43672 | 42.38379 | 38021 ft | 417 kts | 252° |
| 2026-05-06 00:51 | 23.42268 | 42.32252 | 38000 ft | 417 kts | 253° |
| 2026-05-06 00:52 | 23.40863 | 42.26132 | 38017 ft | 417 kts | 253° |
| 2026-05-06 00:52 | 23.39455 | 42.20012 | 38012 ft | 417 kts | 253° |
| 2026-05-06 00:53 | 23.38046 | 42.13894 | 38009 ft | 417 kts | 252° |
| 2026-05-06 00:53 | 23.36634 | 42.07777 | 38006 ft | 417 kts | 252° |
| 2026-05-06 00:54 | 23.35219 | 42.01660 | 38020 ft | 417 kts | 252° |
| 2026-05-06 00:54 | 23.33802 | 41.95545 | 38014 ft | 417 kts | 252° |
| 2026-05-06 00:55 | 23.32383 | 41.89431 | 38011 ft | 417 kts | 252° |
| 2026-05-06 00:55 | 23.30962 | 41.83318 | 38017 ft | 417 kts | 252° |
| 2026-05-06 00:56 | 23.29534 | 41.77196 | 38041 ft | 417 kts | 252° |
| 2026-05-06 00:56 | 23.27532 | 41.71358 | 38031 ft | 414 kts | 244° |
| 2026-05-06 00:57 | 23.24802 | 41.65870 | 38034 ft | 412 kts | 237° |
| 2026-05-06 00:57 | 23.21697 | 41.60641 | 38029 ft | 411 kts | 236° |
| 2026-05-06 00:58 | 23.18579 | 41.55426 | 38046 ft | 412 kts | 237° |
| 2026-05-06 00:58 | 23.15469 | 41.50193 | 38023 ft | 412 kts | 237° |
| 2026-05-06 00:59 | 23.12366 | 41.44958 | 38034 ft | 412 kts | 237° |
| 2026-05-06 00:59 | 23.09260 | 41.39716 | 38035 ft | 412 kts | 237° |
| 2026-05-06 01:00 | 23.06154 | 41.34480 | 38053 ft | 413 kts | 236° |
| 2026-05-06 01:00 | 23.03042 | 41.29241 | 38036 ft | 413 kts | 237° |
| 2026-05-06 01:01 | 22.99929 | 41.24005 | 38037 ft | 413 kts | 237° |
| 2026-05-06 01:01 | 22.96813 | 41.18769 | 38035 ft | 413 kts | 237° |
| 2026-05-06 01:02 | 22.93696 | 41.13536 | 38036 ft | 413 kts | 237° |
| 2026-05-06 01:02 | 22.90577 | 41.08305 | 38040 ft | 413 kts | 236° |
| 2026-05-06 01:03 | 22.87461 | 41.03083 | 38034 ft | 412 kts | 236° |
| 2026-05-06 01:03 | 22.84338 | 40.97861 | 38036 ft | 413 kts | 236° |
| 2026-05-06 01:04 | 22.81205 | 40.92640 | 38037 ft | 414 kts | 236° |
| 2026-05-06 01:04 | 22.78088 | 40.87449 | 38041 ft | 414 kts | 236° |
| 2026-05-06 01:05 | 22.74947 | 40.82220 | 38029 ft | 414 kts | 236° |
| 2026-05-06 01:05 | 22.71808 | 40.76999 | 38031 ft | 413 kts | 236° |
| 2026-05-06 01:06 | 22.68667 | 40.71781 | 38044 ft | 414 kts | 236° |
| 2026-05-06 01:06 | 22.65521 | 40.66558 | 38049 ft | 413 kts | 236° |
| 2026-05-06 01:07 | 22.62216 | 40.61076 | 37561 ft | 401 kts | 236° |
| 2026-05-06 01:07 | 22.60699 | 40.58563 | 37125 ft | 396 kts | 237° |
| 2026-05-06 01:07 | 22.59704 | 40.56915 | 36798 ft | 394 kts | 237° |
| 2026-05-06 01:07 | 22.58212 | 40.54445 | 36319 ft | 391 kts | 237° |
| 2026-05-06 01:08 | 22.56731 | 40.51994 | 35846 ft | 388 kts | 237° |
| 2026-05-06 01:08 | 22.55258 | 40.49559 | 35332 ft | 386 kts | 237° |
| 2026-05-06 01:08 | 22.53795 | 40.47139 | 34860 ft | 384 kts | 237° |
| 2026-05-06 01:08 | 22.52335 | 40.44726 | 34344 ft | 383 kts | 238° |
| 2026-05-06 01:09 | 22.50880 | 40.42323 | 33809 ft | 381 kts | 238° |
| 2026-05-06 01:09 | 22.49430 | 40.39927 | 33284 ft | 379 kts | 238° |
| 2026-05-06 01:09 | 22.47990 | 40.37551 | 32783 ft | 377 kts | 238° |
| 2026-05-06 01:09 | 22.46559 | 40.35189 | 32296 ft | 374 kts | 237° |
| 2026-05-06 01:10 | 22.45138 | 40.32846 | 31829 ft | 372 kts | 237° |
| 2026-05-06 01:10 | 22.43724 | 40.30516 | 31349 ft | 370 kts | 237° |
| 2026-05-06 01:10 | 22.42318 | 40.28199 | 30898 ft | 368 kts | 237° |
| 2026-05-06 01:10 | 22.40917 | 40.25892 | 30425 ft | 366 kts | 237° |
| 2026-05-06 01:11 | 22.39522 | 40.23595 | 29909 ft | 365 kts | 237° |
| 2026-05-06 01:11 | 22.38129 | 40.21303 | 29387 ft | 364 kts | 237° |
| 2026-05-06 01:11 | 22.36745 | 40.19026 | 28886 ft | 361 kts | 237° |
| 2026-05-06 01:11 | 22.35388 | 40.16796 | 28417 ft | 359 kts | 237° |
| 2026-05-06 01:12 | 22.34020 | 40.14547 | 27979 ft | 357 kts | 237° |
| 2026-05-06 01:12 | 22.32657 | 40.12308 | 27490 ft | 356 kts | 237° |
| 2026-05-06 01:12 | 22.31301 | 40.10080 | 27028 ft | 354 kts | 237° |
| 2026-05-06 01:12 | 22.29950 | 40.07862 | 26577 ft | 353 kts | 237° |
| 2026-05-06 01:13 | 22.28603 | 40.05650 | 26123 ft | 352 kts | 237° |
| 2026-05-06 01:13 | 22.27260 | 40.03449 | 25696 ft | 351 kts | 237° |
| 2026-05-06 01:13 | 22.25919 | 40.01250 | 25234 ft | 350 kts | 236° |
| 2026-05-06 01:13 | 22.24581 | 39.99057 | 24786 ft | 350 kts | 236° |
| 2026-05-06 01:14 | 22.21900 | 39.94666 | 23885 ft | 350 kts | 236° |
| 2026-05-06 01:14 | 22.20561 | 39.92473 | 23428 ft | 350 kts | 236° |
| 2026-05-06 01:14 | 22.19220 | 39.90275 | 22942 ft | 350 kts | 236° |
| 2026-05-06 01:15 | 22.17885 | 39.88090 | 22621 ft | 345 kts | 235° |
| 2026-05-06 01:15 | 22.16577 | 39.85951 | 22263 ft | 341 kts | 236° |
| 2026-05-06 01:15 | 22.15283 | 39.83833 | 21817 ft | 334 kts | 235° |
| 2026-05-06 01:15 | 22.14022 | 39.81768 | 21406 ft | 326 kts | 235° |
| 2026-05-06 01:16 | 22.12789 | 39.79751 | 21015 ft | 319 kts | 235° |
| 2026-05-06 01:16 | 22.11583 | 39.77778 | 20620 ft | 312 kts | 235° |
| 2026-05-06 01:16 | 22.10397 | 39.75840 | 20225 ft | 307 kts | 235° |
| 2026-05-06 01:16 | 22.09228 | 39.73928 | 19847 ft | 306 kts | 234° |
| 2026-05-06 01:17 | 22.08044 | 39.71992 | 19493 ft | 314 kts | 234° |
| 2026-05-06 01:17 | 22.06810 | 39.69979 | 19099 ft | 328 kts | 234° |
| 2026-05-06 01:17 | 22.05540 | 39.67914 | 18650 ft | 329 kts | 234° |
| 2026-05-06 01:17 | 22.04301 | 39.65897 | 18227 ft | 316 kts | 234° |
| 2026-05-06 01:18 | 22.03113 | 39.63966 | 17786 ft | 303 kts | 234° |
| 2026-05-06 01:18 | 22.01969 | 39.62105 | 17413 ft | 296 kts | 234° |
| 2026-05-06 01:18 | 22.00849 | 39.60286 | 17150 ft | 295 kts | 234° |
| 2026-05-06 01:18 | 21.99702 | 39.58424 | 16799 ft | 303 kts | 234° |
| 2026-05-06 01:19 | 21.98525 | 39.56513 | 16423 ft | 308 kts | 234° |
| 2026-05-06 01:19 | 21.97339 | 39.54584 | 16036 ft | 309 kts | 234° |
| 2026-05-06 01:19 | 21.96154 | 39.52656 | 15653 ft | 308 kts | 234° |
| 2026-05-06 01:19 | 21.94970 | 39.50732 | 15266 ft | 308 kts | 234° |
| 2026-05-06 01:20 | 21.93825 | 39.48781 | 14833 ft | 310 kts | 238° |
| 2026-05-06 01:20 | 21.92851 | 39.46697 | 14398 ft | 313 kts | 242° |
| 2026-05-06 01:20 | 21.91937 | 39.44562 | 13943 ft | 315 kts | 242° |
| 2026-05-06 01:20 | 21.91025 | 39.42420 | 13447 ft | 313 kts | 242° |
| 2026-05-06 01:21 | 21.90117 | 39.40304 | 12962 ft | 313 kts | 242° |
| 2026-05-06 01:21 | 21.89177 | 39.38152 | 12526 ft | 321 kts | 242° |
| 2026-05-06 01:21 | 21.88213 | 39.35971 | 12231 ft | 323 kts | 242° |
| 2026-05-06 01:21 | 21.87249 | 39.33802 | 11928 ft | 321 kts | 242° |
| 2026-05-06 01:22 | 21.86305 | 39.31685 | 11649 ft | 305 kts | 242° |
| 2026-05-06 01:22 | 21.85415 | 39.29682 | 11528 ft | 289 kts | 241° |
| 2026-05-06 01:22 | 21.84570 | 39.27785 | 11417 ft | 274 kts | 241° |
| 2026-05-06 01:22 | 21.83767 | 39.25981 | 11325 ft | 261 kts | 241° |
| 2026-05-06 01:23 | 21.82931 | 39.24299 | 11143 ft | 249 kts | 228° |
| 2026-05-06 01:23 | 21.81617 | 39.23186 | 10873 ft | 239 kts | 200° |
| 2026-05-06 01:23 | 21.80007 | 39.22812 | 10535 ft | 238 kts | 181° |
| 2026-05-06 01:23 | 21.78373 | 39.23044 | 10144 ft | 239 kts | 163° |
| 2026-05-06 01:24 | 21.76795 | 39.23648 | 9829 ft | 244 kts | 160° |
| 2026-05-06 01:24 | 21.75212 | 39.24298 | 9765 ft | 242 kts | 160° |
| 2026-05-06 01:24 | 21.73647 | 39.24929 | 9728 ft | 239 kts | 160° |
| 2026-05-06 01:24 | 21.72087 | 39.25553 | 9640 ft | 239 kts | 160° |
| 2026-05-06 01:25 | 21.70528 | 39.26180 | 9517 ft | 240 kts | 160° |
| 2026-05-06 01:25 | 21.68945 | 39.26813 | 9328 ft | 246 kts | 161° |
| 2026-05-06 01:25 | 21.67340 | 39.27452 | 9121 ft | 245 kts | 161° |
| 2026-05-06 01:25 | 21.65752 | 39.28084 | 8916 ft | 241 kts | 161° |
| 2026-05-06 01:26 | 21.64192 | 39.28702 | 8708 ft | 236 kts | 161° |
| 2026-05-06 01:26 | 21.62663 | 39.29307 | 8498 ft | 232 kts | 161° |
| 2026-05-06 01:26 | 21.61146 | 39.29903 | 8198 ft | 232 kts | 161° |
| 2026-05-06 01:26 | 21.59645 | 39.30492 | 7812 ft | 227 kts | 161° |
| 2026-05-06 01:27 | 21.58186 | 39.31062 | 7573 ft | 222 kts | 161° |
| 2026-05-06 01:27 | 21.56716 | 39.31638 | 7447 ft | 230 kts | 161° |
| 2026-05-06 01:27 | 21.55202 | 39.32231 | 7303 ft | 233 kts | 161° |
| 2026-05-06 01:27 | 21.53674 | 39.32829 | 7144 ft | 234 kts | 161° |
| 2026-05-06 01:28 | 21.52145 | 39.33428 | 6987 ft | 234 kts | 162° |
| 2026-05-06 01:28 | 21.50635 | 39.34020 | 6822 ft | 234 kts | 161° |
| 2026-05-06 01:28 | 21.49087 | 39.34627 | 6656 ft | 234 kts | 161° |
| 2026-05-06 01:28 | 21.47572 | 39.35221 | 6344 ft | 234 kts | 160° |
| 2026-05-06 01:29 | 21.46055 | 39.35816 | 6065 ft | 231 kts | 160° |
| 2026-05-06 01:29 | 21.44548 | 39.36404 | 5793 ft | 230 kts | 160° |
| 2026-05-06 01:29 | 21.43050 | 39.36992 | 5554 ft | 228 kts | 160° |
| 2026-05-06 01:29 | 21.41572 | 39.37571 | 5353 ft | 225 kts | 160° |
| 2026-05-06 01:30 | 21.40097 | 39.38150 | 5156 ft | 227 kts | 160° |
| 2026-05-06 01:30 | 21.38609 | 39.38729 | 4993 ft | 227 kts | 163° |
| 2026-05-06 01:30 | 21.37061 | 39.38803 | 4756 ft | 227 kts | 201° |
| 2026-05-06 01:30 | 21.35843 | 39.37793 | 4585 ft | 222 kts | 237° |
| 2026-05-06 01:31 | 21.35061 | 39.36391 | 4467 ft | 219 kts | 253° |
| 2026-05-06 01:31 | 21.35047 | 39.34802 | 4311 ft | 215 kts | 296° |
| 2026-05-06 01:31 | 21.35971 | 39.33604 | 4184 ft | 207 kts | 322° |
| 2026-05-06 01:31 | 21.37042 | 39.32586 | 4083 ft | 205 kts | 318° |
| 2026-05-06 01:32 | 21.38067 | 39.31513 | 3914 ft | 206 kts | 316° |
| 2026-05-06 01:32 | 21.39071 | 39.30422 | 3757 ft | 205 kts | 317° |
| 2026-05-06 01:32 | 21.40069 | 39.29323 | 3569 ft | 206 kts | 317° |
| 2026-05-06 01:32 | 21.41123 | 39.28349 | 3409 ft | 195 kts | 333° |
| 2026-05-06 01:33 | 21.42352 | 39.27758 | 3220 ft | 194 kts | 338° |
| 2026-05-06 01:33 | 21.43591 | 39.27203 | 3012 ft | 191 kts | 339° |
| 2026-05-06 01:33 | 21.44805 | 39.26695 | 2833 ft | 183 kts | 340° |
| 2026-05-06 01:33 | 21.45977 | 39.26222 | 2592 ft | 177 kts | 341° |
| 2026-05-06 01:34 | 21.47105 | 39.25772 | 2401 ft | 168 kts | 342° |
| 2026-05-06 01:34 | 21.48173 | 39.25350 | 2246 ft | 160 kts | 342° |
| 2026-05-06 01:34 | 21.49223 | 39.24936 | 2193 ft | 162 kts | 342° |
| 2026-05-06 01:34 | 21.50276 | 39.24521 | 2089 ft | 157 kts | 342° |
| 2026-05-06 01:35 | 21.51250 | 39.24136 | 2023 ft | 140 kts | 342° |
| 2026-05-06 01:35 | 21.52118 | 39.23791 | 1939 ft | 129 kts | 343° |
| 2026-05-06 01:35 | 21.52955 | 39.23462 | 1920 ft | 128 kts | 343° |
| 2026-05-06 01:35 | 21.53791 | 39.23133 | 1893 ft | 128 kts | 343° |
| 2026-05-06 01:36 | 21.54631 | 39.22801 | 1815 ft | 129 kts | 343° |
| 2026-05-06 01:36 | 21.55465 | 39.22472 | 1754 ft | 127 kts | 342° |
| 2026-05-06 01:36 | 21.56293 | 39.22144 | 1716 ft | 126 kts | 342° |
| 2026-05-06 01:36 | 21.57107 | 39.21822 | 1716 ft | 127 kts | 342° |
| 2026-05-06 01:37 | 21.57937 | 39.21495 | 1711 ft | 127 kts | 342° |
| 2026-05-06 01:37 | 21.58773 | 39.21164 | 1672 ft | 130 kts | 342° |
| 2026-05-06 01:37 | 21.59628 | 39.20826 | 1508 ft | 132 kts | 342° |
| 2026-05-06 01:37 | 21.60488 | 39.20487 | 1319 ft | 131 kts | 341° |
| 2026-05-06 01:38 | 21.61342 | 39.20148 | 1123 ft | 129 kts | 341° |
| 2026-05-06 01:38 | 21.62189 | 39.19817 | 974 ft | 131 kts | 341° |
| 2026-05-06 01:38 | 21.63057 | 39.19468 | 801 ft | 135 kts | 341° |
| 2026-05-06 01:38 | 21.63944 | 39.19112 | 612 ft | 136 kts | 341° |
| 2026-05-06 01:39 | 21.64792 | 39.18775 | 416 ft | 128 kts | 342° |
| 2026-05-06 01:39 | 21.65656 | 39.18438 | 291 ft | 136 kts | 341° |
| 2026-05-06 01:39 | 21.66547 | 39.18086 | 108 ft | 135 kts | 342° |
| 2026-05-06 01:39 | 21.67398 | 39.17756 | 35 ft | 120 kts | 339° |
| 2026-05-06 01:40 | 21.68044 | 39.17497 | 35 ft | 77 kts | 341° |
| 2026-05-06 01:40 | 21.68480 | 39.17329 | 31 ft | 63 kts | 339° |
| 2026-05-06 01:40 | 21.68769 | 39.17194 | 31 ft | 35 kts | 324° |
| 2026-05-06 01:40 | 21.68889 | 39.17071 | 35 ft | 17 kts | 310° |
| 2026-05-06 01:41 | 21.68964 | 39.16971 | 34 ft | 16 kts | 309° |
| 2026-05-06 01:41 | 21.69043 | 39.16882 | 35 ft | 16 kts | 322° |
| 2026-05-06 01:41 | 21.69146 | 39.16828 | 34 ft | 17 kts | 340° |
| 2026-05-06 01:41 | 21.69245 | 39.16770 | 31 ft | 16 kts | 298° |
| 2026-05-06 01:42 | 21.69187 | 39.16704 | 32 ft | 16 kts | 159° |
| 2026-05-06 01:42 | 21.69084 | 39.16750 | 35 ft | 16 kts | 159° |
| 2026-05-06 01:42 | 21.68980 | 39.16793 | 36 ft | 16 kts | 159° |
| 2026-05-06 01:42 | 21.68870 | 39.16836 | 35 ft | 18 kts | 160° |
| 2026-05-06 01:43 | 21.68752 | 39.16883 | 36 ft | 18 kts | 160° |
| 2026-05-06 01:43 | 21.68629 | 39.16931 | 34 ft | 20 kts | 160° |
| 2026-05-06 01:43 | 21.68493 | 39.16985 | 33 ft | 21 kts | 160° |
| 2026-05-06 01:43 | 21.68355 | 39.17040 | 35 ft | 21 kts | 160° |
| 2026-05-06 01:44 | 21.68216 | 39.17095 | 34 ft | 21 kts | 160° |
| 2026-05-06 01:44 | 21.68078 | 39.17149 | 35 ft | 21 kts | 160° |
| 2026-05-06 01:44 | 21.67936 | 39.17204 | 35 ft | 22 kts | 161° |
| 2026-05-06 01:44 | 21.67866 | 39.17203 | 35 ft | 9 kts | 219° |
| 2026-05-06 01:45 | 21.67837 | 39.17144 | 35 ft | 10 kts | 247° |
| 2026-05-06 01:45 | 21.67797 | 39.17085 | 35 ft | 11 kts | 194° |
| 2026-05-06 01:45 | 21.67722 | 39.17107 | 35 ft | 12 kts | 160° |
| 2026-05-06 01:45 | 21.67630 | 39.17143 | 35 ft | 16 kts | 160° |
| 2026-05-06 01:46 | 21.67525 | 39.17182 | 35 ft | 16 kts | 163° |
| 2026-05-06 01:46 | 21.67425 | 39.17141 | 35 ft | 16 kts | 219° |
| 2026-05-06 01:46 | 21.67370 | 39.17111 | 35 ft | 8 kts | 166° |
| 2026-05-06 01:46 | 21.67336 | 39.17153 | 35 ft | 5 kts | 128° |
| 2026-05-06 01:47 | 21.67324 | 39.17170 | 35 ft | 2 kts | 129° |
| 2026-05-06 01:47 | 21.67323 | 39.17171 | 35 ft | 1 kts | 129° |
| 2026-05-06 01:47 | 21.67322 | 39.17171 | 35 ft | 0 kts | 129° |
| 2026-05-06 01:49 | 21.48868 | 39.34713 | 6615 ft | 235 kts | 161° |
| 2026-05-06 01:49 | 21.47332 | 39.35315 | 6290 ft | 233 kts | 160° |
| 2026-05-06 01:50 | 21.45819 | 39.35908 | 6026 ft | 231 kts | 160° |
| 2026-05-06 01:50 | 21.44313 | 39.36496 | 5750 ft | 230 kts | 160° |
| 2026-05-06 01:50 | 21.42818 | 39.37083 | 5516 ft | 227 kts | 160° |
| 2026-05-06 01:50 | 21.41342 | 39.37662 | 5327 ft | 225 kts | 160° |
| 2026-05-06 01:51 | 21.39864 | 39.38241 | 5124 ft | 227 kts | 160° |
| 2026-05-06 01:51 | 21.38373 | 39.38806 | 4953 ft | 227 kts | 166° |
| 2026-05-06 01:51 | 21.36828 | 39.38708 | 4723 ft | 227 kts | 208° |
| 2026-05-06 01:51 | 21.35708 | 39.37580 | 4573 ft | 220 kts | 238° |
| 2026-05-06 01:52 | 21.34985 | 39.36149 | 4441 ft | 219 kts | 259° |
| 2026-05-06 01:52 | 21.35145 | 39.34574 | 4295 ft | 214 kts | 303° |
| 2026-05-06 01:52 | 21.36144 | 39.33449 | 4173 ft | 206 kts | 321° |
| 2026-05-06 01:52 | 21.37205 | 39.32420 | 4054 ft | 206 kts | 318° |
| 2026-05-06 01:53 | 21.38225 | 39.31343 | 3892 ft | 206 kts | 316° |
| 2026-05-06 01:53 | 21.39228 | 39.30250 | 3737 ft | 205 kts | 317° |
| 2026-05-06 01:53 | 21.40226 | 39.29149 | 3539 ft | 205 kts | 317° |
| 2026-05-06 01:53 | 21.41294 | 39.28253 | 3389 ft | 194 kts | 335° |
| 2026-05-06 01:54 | 21.42530 | 39.27676 | 3194 ft | 194 kts | 338° |
| 2026-05-06 01:54 | 21.43784 | 39.27120 | 2986 ft | 190 kts | 340° |
| 2026-05-06 01:54 | 21.44974 | 39.26626 | 2800 ft | 182 kts | 340° |
| 2026-05-06 01:54 | 21.46141 | 39.26156 | 2552 ft | 176 kts | 341° |
| 2026-05-06 01:55 | 21.47255 | 39.25713 | 2384 ft | 167 kts | 342° |
| 2026-05-06 01:55 | 21.48315 | 39.25294 | 2241 ft | 160 kts | 342° |
| 2026-05-06 01:55 | 21.49381 | 39.24874 | 2181 ft | 162 kts | 342° |
| 2026-05-06 01:55 | 21.50415 | 39.24466 | 2078 ft | 155 kts | 342° |
| 2026-05-06 01:56 | 21.51372 | 39.24087 | 2013 ft | 138 kts | 342° |
| 2026-05-06 01:56 | 21.52244 | 39.23742 | 1929 ft | 129 kts | 343° |
| 2026-05-06 01:56 | 21.53080 | 39.23413 | 1917 ft | 128 kts | 343° |
| 2026-05-06 01:56 | 21.53905 | 39.23088 | 1886 ft | 129 kts | 343° |
| 2026-05-06 01:57 | 21.54746 | 39.22756 | 1811 ft | 128 kts | 343° |
| 2026-05-06 01:57 | 21.55578 | 39.22428 | 1747 ft | 127 kts | 342° |
| 2026-05-06 01:57 | 21.56406 | 39.22100 | 1715 ft | 126 kts | 342° |
| 2026-05-06 01:57 | 21.57231 | 39.21773 | 1714 ft | 127 kts | 342° |
| 2026-05-06 01:58 | 21.58062 | 39.21445 | 1709 ft | 128 kts | 342° |
| 2026-05-06 01:58 | 21.58901 | 39.21114 | 1650 ft | 131 kts | 342° |
| 2026-05-06 01:58 | 21.59758 | 39.20775 | 1476 ft | 132 kts | 341° |
| 2026-05-06 01:58 | 21.60616 | 39.20436 | 1297 ft | 132 kts | 341° |
| 2026-05-06 01:59 | 21.61469 | 39.20098 | 1102 ft | 128 kts | 341° |
| 2026-05-06 01:59 | 21.62317 | 39.19766 | 966 ft | 131 kts | 341° |
| 2026-05-06 01:59 | 21.63189 | 39.19414 | 766 ft | 135 kts | 341° |
| 2026-05-06 01:59 | 21.64075 | 39.19060 | 579 ft | 133 kts | 341° |
| 2026-05-06 02:00 | 21.64917 | 39.18726 | 404 ft | 129 kts | 341° |
| 2026-05-06 02:00 | 21.65791 | 39.18385 | 259 ft | 138 kts | 341° |
| 2026-05-06 02:00 | 21.66680 | 39.18035 | 85 ft | 135 kts | 342° |
| 2026-05-06 02:00 | 21.67513 | 39.17711 | 36 ft | 115 kts | 340° |
| 2026-05-06 02:01 | 21.68116 | 39.17471 | 34 ft | 70 kts | 341° |
| 2026-05-06 02:01 | 21.68540 | 39.17305 | 32 ft | 60 kts | 340° |
| 2026-05-06 02:01 | 21.68798 | 39.17171 | 32 ft | 32 kts | 322° |
| 2026-05-06 02:01 | 21.68901 | 39.17056 | 35 ft | 17 kts | 309° |
| 2026-05-06 02:02 | 21.68975 | 39.16957 | 34 ft | 16 kts | 310° |
| 2026-05-06 02:02 | 21.69057 | 39.16872 | 35 ft | 16 kts | 326° |
| 2026-05-06 02:02 | 21.64347 | 39.18951 | 542 ft | 129 kts | 341° |
| 2026-05-06 02:02 | 21.65219 | 39.18609 | 372 ft | 133 kts | 341° |
| 2026-05-06 02:03 | 21.58713 | 39.21188 | 1679 ft | 129 kts | 342° |
| 2026-05-06 02:03 | 21.59568 | 39.20850 | 1522 ft | 131 kts | 342° |
| 2026-05-06 02:03 | 21.60427 | 39.20511 | 1327 ft | 131 kts | 341° |
| 2026-05-06 02:03 | 21.61283 | 39.20172 | 1141 ft | 129 kts | 341° |
| 2026-05-06 02:04 | 21.62129 | 39.19840 | 977 ft | 131 kts | 341° |
| 2026-05-06 02:04 | 21.62995 | 39.19493 | 817 ft | 135 kts | 341° |
| 2026-05-06 02:04 | 21.63882 | 39.19137 | 616 ft | 137 kts | 341° |
| 2026-05-06 02:04 | 21.64732 | 39.18799 | 429 ft | 128 kts | 342° |
| 2026-05-06 02:05 | 21.65595 | 39.18462 | 304 ft | 136 kts | 341° |
| 2026-05-06 02:05 | 21.66485 | 39.18110 | 121 ft | 136 kts | 342° |
| 2026-05-06 02:05 | 21.67342 | 39.17779 | 36 ft | 122 kts | 340° |
| 2026-05-06 02:05 | 21.68007 | 39.17511 | 37 ft | 80 kts | 340° |
| 2026-05-06 02:06 | 21.68451 | 39.17340 | 31 ft | 63 kts | 339° |
| 2026-05-06 02:06 | 21.68755 | 39.17204 | 31 ft | 35 kts | 326° |
| 2026-05-06 02:06 | 21.68884 | 39.17078 | 35 ft | 17 kts | 310° |
| 2026-05-06 02:06 | 21.62053 | 39.19870 | 981 ft | 131 kts | 341° |
| 2026-05-06 02:07 | 21.62916 | 39.19525 | 850 ft | 135 kts | 340° |
| 2026-05-06 02:07 | 21.63802 | 39.19169 | 625 ft | 137 kts | 341° |
| 2026-05-06 02:07 | 21.64647 | 39.18832 | 451 ft | 128 kts | 341° |
| 2026-05-06 02:07 | 21.65503 | 39.18499 | 320 ft | 135 kts | 341° |
| 2026-05-06 02:08 | 21.66394 | 39.18146 | 149 ft | 136 kts | 342° |
| 2026-05-06 02:08 | 21.67260 | 39.17810 | 38 ft | 124 kts | 341° |
| 2026-05-06 02:08 | 21.67952 | 39.17534 | 39 ft | 84 kts | 339° |
| 2026-05-06 02:08 | 21.68409 | 39.17358 | 31 ft | 64 kts | 339° |
| 2026-05-06 02:09 | 21.68734 | 39.17219 | 31 ft | 36 kts | 328° |
| 2026-05-06 02:09 | 21.68876 | 39.17088 | 35 ft | 17 kts | 311° |
| 2026-05-06 02:09 | 21.68951 | 39.16988 | 34 ft | 17 kts | 308° |
| 2026-05-06 02:09 | 21.57297 | 39.21747 | 1715 ft | 127 kts | 342° |
| 2026-05-06 02:10 | 21.58129 | 39.21419 | 1705 ft | 128 kts | 342° |
| 2026-05-06 02:10 | 21.58970 | 39.21087 | 1637 ft | 131 kts | 342° |
| 2026-05-06 02:10 | 21.59827 | 39.20748 | 1462 ft | 132 kts | 341° |
| 2026-05-06 02:10 | 21.60685 | 39.20409 | 1278 ft | 132 kts | 341° |
| 2026-05-06 02:11 | 21.61536 | 39.20072 | 1094 ft | 128 kts | 341° |
| 2026-05-06 02:11 | 21.62384 | 39.19739 | 965 ft | 131 kts | 341° |
| 2026-05-06 02:11 | 21.63259 | 39.19386 | 748 ft | 135 kts | 341° |
| 2026-05-06 02:11 | 21.36646 | 39.32979 | 4124 ft | 205 kts | 320° |
| 2026-05-06 02:12 | 21.37683 | 39.31921 | 3974 ft | 206 kts | 317° |
| 2026-05-06 02:12 | 21.38694 | 39.30834 | 3826 ft | 205 kts | 317° |
| 2026-05-06 02:12 | 21.39693 | 39.29738 | 3657 ft | 206 kts | 317° |
| 2026-05-06 02:12 | 21.40697 | 39.28661 | 3454 ft | 199 kts | 324° |
| 2026-05-06 02:13 | 21.41885 | 39.27971 | 3297 ft | 194 kts | 338° |
| 2026-05-06 02:13 | 21.40661 | 39.37929 | 5213 ft | 226 kts | 160° |
| 2026-05-06 02:13 | 21.39176 | 39.38510 | 5058 ft | 228 kts | 160° |
| 2026-05-06 02:13 | 21.37651 | 39.38909 | 4839 ft | 227 kts | 184° |
| 2026-05-06 02:14 | 21.36224 | 39.38277 | 4654 ft | 226 kts | 227° |
| 2026-05-06 02:14 | 21.35324 | 39.36943 | 4545 ft | 219 kts | 241° |
| 2026-05-06 02:14 | 21.34918 | 39.35399 | 4354 ft | 218 kts | 280° |
| 2026-05-06 02:14 | 21.35557 | 39.33993 | 4213 ft | 210 kts | 319° |
| 2026-05-06 02:15 | 21.36643 | 39.32982 | 4126 ft | 205 kts | 320° |
| 2026-05-06 02:15 | 21.37680 | 39.31925 | 3975 ft | 206 kts | 317° |
| 2026-05-06 02:15 | 21.38691 | 39.30837 | 3827 ft | 205 kts | 317° |
| 2026-05-06 02:15 | 21.39690 | 39.29741 | 3655 ft | 206 kts | 317° |
| 2026-05-06 02:16 | 21.40694 | 39.28664 | 3453 ft | 199 kts | 324° |
| 2026-05-06 02:16 | 21.41880 | 39.27973 | 3298 ft | 194 kts | 338° |
| 2026-05-06 02:16 | 21.43121 | 39.27408 | 3096 ft | 193 kts | 339° |
| 2026-05-06 02:16 | 21.44349 | 39.26882 | 2909 ft | 186 kts | 340° |
| 2026-05-06 02:17 | 21.45535 | 39.26399 | 2675 ft | 180 kts | 341° |
| 2026-05-06 02:17 | 21.46683 | 39.25940 | 2449 ft | 172 kts | 342° |
| 2026-05-06 02:17 | 21.47774 | 39.25507 | 2295 ft | 162 kts | 342° |
| 2026-05-06 02:17 | 21.48823 | 39.25094 | 2210 ft | 161 kts | 342° |
| 2026-05-06 02:18 | 21.49880 | 39.24678 | 2137 ft | 162 kts | 342° |
| 2026-05-06 02:18 | 21.50894 | 39.24277 | 2038 ft | 147 kts | 342° |
| 2026-05-06 02:18 | 21.51797 | 39.23918 | 1977 ft | 131 kts | 343° |
| 2026-05-06 02:18 | 21.52637 | 39.23587 | 1924 ft | 128 kts | 343° |
| 2026-05-06 02:19 | 21.53473 | 39.23258 | 1909 ft | 128 kts | 343° |
| 2026-05-06 02:19 | 21.54312 | 39.22927 | 1836 ft | 129 kts | 343° |
| 2026-05-06 02:19 | 21.55150 | 39.22597 | 1781 ft | 127 kts | 343° |
| 2026-05-06 02:19 | 21.55979 | 39.22268 | 1725 ft | 127 kts | 342° |
| 2026-05-06 02:20 | 21.57621 | 39.21620 | 1712 ft | 127 kts | 342° |
| 2026-05-06 02:20 | 21.58454 | 39.21291 | 1690 ft | 128 kts | 342° |
| 2026-05-06 02:20 | 21.59304 | 39.20954 | 1576 ft | 131 kts | 342° |
| 2026-05-06 02:21 | 21.60162 | 39.20616 | 1390 ft | 132 kts | 341° |
| 2026-05-06 02:21 | 21.61020 | 39.20276 | 1218 ft | 131 kts | 341° |
| 2026-05-06 02:21 | 21.61865 | 39.19944 | 1021 ft | 130 kts | 341° |
| 2026-05-06 02:21 | 21.62723 | 39.19603 | 900 ft | 134 kts | 340° |
| 2026-05-06 02:22 | 21.63604 | 39.19247 | 663 ft | 137 kts | 341° |
| 2026-05-06 02:22 | 21.64475 | 39.18900 | 476 ft | 128 kts | 341° |
| 2026-05-06 02:22 | 21.65041 | 39.18678 | 386 ft | 131 kts | 341° |
| 2026-05-06 02:22 | 21.65922 | 39.18333 | 239 ft | 137 kts | 342° |
| 2026-05-06 02:23 | 21.66808 | 39.17985 | 53 ft | 134 kts | 342° |
| 2026-05-06 02:23 | 21.67610 | 39.17673 | 39 ft | 109 kts | 340° |
| 2026-05-06 02:23 | 21.68175 | 39.17449 | 33 ft | 67 kts | 341° |
| 2026-05-06 02:23 | 21.68590 | 39.17285 | 32 ft | 54 kts | 340° |
| 2026-05-06 02:24 | 21.68819 | 39.17152 | 32 ft | 29 kts | 319° |
| 2026-05-06 02:24 | 21.68911 | 39.17043 | 35 ft | 17 kts | 309° |
| 2026-05-06 02:24 | 21.68985 | 39.16944 | 34 ft | 16 kts | 310° |
| 2026-05-06 02:24 | 21.67061 | 39.17886 | 43 ft | 130 kts | 341° |
| 2026-05-06 02:25 | 21.62379 | 39.19741 | 962 ft | 131 kts | 341° |
| 2026-05-06 02:25 | 21.63254 | 39.19388 | 749 ft | 135 kts | 341° |
| 2026-05-06 02:25 | 21.64129 | 39.19038 | 571 ft | 132 kts | 341° |